Terminal Aerodrome Forecast
Issued by NWS Charleston, WV

Current Version | Previous Version | Graphics & Text | Print | Product List | Glossary On
Versions: 1 2 3 4 5 6 7 8 9 10 11 12 13 14 15 16 17 18 19 20 21 22 23 24 25 26 27 28 29 30 31
000
FTUS41 KRLX 211314 AAA
TAFBKW
TAF AMD
KBKW 211314Z 2113/2212 00000KT 3SM -RA BR SCT008 OVC015
     FM211500 00000KT P6SM OVC025
     FM211900 30006KT P6SM BKN025
     FM220500 29005KT P6SM BKN045
     FM220800 29005KT P6SM SCT110=

USA.gov is the U.S. government's official web portal to all federal, state and local government web resources and services.